Accueil
METAR-TAF:

METAR-TAF

Aéroports :

Orange Municipal Airport

Orange, Massachusetts, États-Unis

latitude: 42-34-18N, longitude: 072-16-39W, altitude: 169 m

Observation

Le bulletin a été fait il y a 13 minutes, à 16:52 UTC
Vent 5 kt de sud-ouest
Température 20°C
Humidité 56%
Pression 1012 hPa
Visibilité: 16.1 km
Quelques nuages à une hauteur de 12000 ft

METAR: KORE 011652Z AUTO 22005KT 10SM FEW120 20/11 A2988 RMK AO2 SLP118 T02000111

Heure: 13:05 (17:05 UTC)


TAF: absent

Observations et prévisions météorologiques de plus de 4000 aéroports (messages METAR et TAF).

Les stations disponibles sont représentées par des disques jaunes et rouges sur la carte.

Passer la souris dessus pour voir le nom de la station.

Cliquer dessus pour voir les observations et prévisions météorologiques.

Pour changer de carte: cliquez sur les boutons verts avec une croix noire pour zoomer, sur le bouton vert avec un tiret pour effectuer un zoom arrière, ou sur les flèches vertes pour les cartes adjacentes.


METAR-TAF: